Estación de Chanco INIA
Ultimos registro cada 15 minutos 79
| N° | Estación | Fecha / Hora | Temperatura | Humedad | Lluvia | Velocidad | Dirección | Radiación | Presion |
| 79 | Chanco INIA | 06-05-2026 19:45 | 10,4 | 91,3 | 0 | 0 | 0 | 0 | 1007 |
| 78 | Chanco INIA | 06-05-2026 19:30 | 10,5 | 91,3 | 0 | 0 | 0 | 0 | 1007 |
| 77 | Chanco INIA | 06-05-2026 19:15 | 10,7 | 91,6 | 0 | 0 | 0 | 0 | 1007 |
| 76 | Chanco INIA | 06-05-2026 19:00 | 10,8 | 91,8 | 0 | 0,1 | 214 | 0 | 1006 |
| 75 | Chanco INIA | 06-05-2026 18:45 | 10,9 | 91,3 | 0 | 0 | 0 | 0 | 1006 |
| 74 | Chanco INIA | 06-05-2026 18:30 | 11,1 | 89,8 | 0 | 0 | 0 | 0 | 1006 |
| 73 | Chanco INIA | 06-05-2026 18:15 | 11,6 | 88 | 0 | 0,3 | 224 | 4 | 1006 |
| 72 | Chanco INIA | 06-05-2026 18:00 | 12 | 86,2 | 0 | 0,7 | 230 | 15 | 1005 |
| 71 | Chanco INIA | 06-05-2026 17:45 | 12,1 | 85,8 | 0 | 0,5 | 234 | 38 | 1006 |
| 70 | Chanco INIA | 06-05-2026 17:30 | 12,2 | 85,8 | 0 | 0,5 | 230 | 41 | 1005 |
| 69 | Chanco INIA | 06-05-2026 17:15 | 12,4 | 85 | 0 | 1 | 241 | 71 | 1005 |
| 68 | Chanco INIA | 06-05-2026 17:00 | 12,6 | 84,1 | 0 | 1,3 | 234 | 85 | 1005 |
| 67 | Chanco INIA | 06-05-2026 16:45 | 12,7 | 83,2 | 0 | 0,9 | 225 | 110 | 1005 |
| 66 | Chanco INIA | 06-05-2026 16:30 | 12,8 | 82 | 0 | 1,8 | 232 | 145 | 1005 |
| 65 | Chanco INIA | 06-05-2026 16:15 | 12,8 | 83,3 | 0 | 1,9 | 238 | 162 | 1005 |
| 64 | Chanco INIA | 06-05-2026 16:00 | 12,8 | 84,1 | 0 | 2 | 234 | 109 | 1005 |
| 63 | Chanco INIA | 06-05-2026 15:45 | 13,2 | 83,1 | 0 | 2,5 | 220 | 131 | 1005 |
| 62 | Chanco INIA | 06-05-2026 15:30 | 13,7 | 82,7 | 0 | 2,9 | 237 | 350 | 1004 |
| 61 | Chanco INIA | 06-05-2026 15:00 | 13,5 | 83,8 | 0 | 2,6 | 234 | 282 | 1004 |
| 60 | Chanco INIA | 06-05-2026 14:45 | 13,5 | 86,1 | 0 | 3 | 241 | 248 | 1003 |
| 59 | Chanco INIA | 06-05-2026 14:30 | 13,4 | 87,5 | 0 | 2,8 | 241 | 226 | 1003 |
| 58 | Chanco INIA | 06-05-2026 14:15 | 13,4 | 89,6 | 0 | 2,8 | 246 | 219 | 1003 |
| 57 | Chanco INIA | 06-05-2026 14:00 | 13,3 | 90,4 | 0 | 2,8 | 247 | 233 | 1002 |
| 56 | Chanco INIA | 06-05-2026 13:45 | 13,1 | 91,4 | 0 | 2,7 | 241 | 229 | 1002 |
| 55 | Chanco INIA | 06-05-2026 13:30 | 13 | 93,1 | 0 | 2,5 | 232 | 250 | 1002 |
| 54 | Chanco INIA | 06-05-2026 13:15 | 13,1 | 95,3 | 0 | 2,5 | 227 | 323 | 1001 |
| 53 | Chanco INIA | 06-05-2026 13:00 | 12,9 | 97,5 | 0 | 3,2 | 232 | 332 | 1002 |
| 52 | Chanco INIA | 06-05-2026 12:45 | 12,6 | 98,7 | 0 | 3,2 | 233 | 274 | 1001 |
| 51 | Chanco INIA | 06-05-2026 12:30 | 12,4 | 99 | 0 | 3,1 | 228 | 208 | 1001 |
| 50 | Chanco INIA | 06-05-2026 12:15 | 12,2 | 99,2 | 0 | 3,2 | 232 | 121 | 1000 |
| 49 | Chanco INIA | 06-05-2026 12:00 | 12,3 | 99,3 | 0 | 3,3 | 231 | 141 | 1000 |
| 48 | Chanco INIA | 06-05-2026 11:45 | 12,4 | 99,4 | 0 | 3 | 230 | 93 | 1000 |
| 47 | Chanco INIA | 06-05-2026 11:30 | 12,5 | 99,3 | 0 | 3,7 | 236 | 82 | 999 |
| 46 | Chanco INIA | 06-05-2026 11:15 | 12,5 | 99,1 | 0 | 5 | 236 | 55 | 999 |
| 45 | Chanco INIA | 06-05-2026 11:00 | 12,6 | 99,2 | 0 | 3,1 | 240 | 43 | 998 |
| 44 | Chanco INIA | 06-05-2026 10:45 | 12,7 | 99,3 | 0 | 3,1 | 242 | 59 | 998 |
| 43 | Chanco INIA | 06-05-2026 10:30 | 12,9 | 99,1 | 0,1 | 3,4 | 237 | 50 | 997 |
| 42 | Chanco INIA | 06-05-2026 10:15 | 13,5 | 98,7 | 0,1 | 5,4 | 290 | 43 | 997 |
| 41 | Chanco INIA | 06-05-2026 10:00 | 13,6 | 98,8 | 0,2 | 5,2 | 316 | 22 | 997 |
| 40 | Chanco INIA | 06-05-2026 09:45 | 13,7 | 98,5 | 0 | 5,7 | 321 | 16 | 996 |
| 39 | Chanco INIA | 06-05-2026 09:30 | 13,8 | 98,2 | 1 | 5,3 | 335 | 8 | 996 |
| 38 | Chanco INIA | 06-05-2026 09:15 | 13,8 | 97,8 | 1,3 | 5,9 | 339 | 11 | 996 |
| 37 | Chanco INIA | 06-05-2026 09:00 | 13,6 | 97,6 | 0 | 6,5 | 345 | 57 | 996 |
| 36 | Chanco INIA | 06-05-2026 08:45 | 13,3 | 97,6 | 0,5 | 6,2 | 339 | 13 | 996 |
| 35 | Chanco INIA | 06-05-2026 08:30 | 13,3 | 97,4 | 1,1 | 6,4 | 346 | 14 | 996 |
| 34 | Chanco INIA | 06-05-2026 08:15 | 13,5 | 97,5 | 1,3 | 5,8 | 336 | 9 | 996 |
| 33 | Chanco INIA | 06-05-2026 08:00 | 13,6 | 97,7 | 3,1 | 5,2 | 357 | 4 | 995 |
| 32 | Chanco INIA | 06-05-2026 07:45 | 13,6 | 97,4 | 0,3 | 4,9 | 358 | 1 | 995 |
| 31 | Chanco INIA | 06-05-2026 07:30 | 13,6 | 97,3 | 0 | 4,9 | 356 | 1 | 995 |
| 30 | Chanco INIA | 06-05-2026 07:15 | 13,6 | 97,6 | 0,1 | 4,5 | 356 | 0 | 996 |
| 29 | Chanco INIA | 06-05-2026 07:00 | 13,6 | 97,6 | 0 | 4,3 | 355 | 0 | 996 |
| 28 | Chanco INIA | 06-05-2026 06:45 | 13,6 | 97,6 | 0 | 3 | 355 | 0 | 996 |
| 27 | Chanco INIA | 06-05-2026 06:30 | 13,6 | 98,1 | 0 | 4,3 | 351 | 0 | 995 |
| 26 | Chanco INIA | 06-05-2026 06:15 | 13,6 | 97,9 | 0,2 | 4,9 | 351 | 0 | 996 |
| 25 | Chanco INIA | 06-05-2026 06:00 | 13,7 | 97,6 | 0,1 | 4,9 | 350 | 0 | 995 |
| 24 | Chanco INIA | 06-05-2026 05:45 | 13,7 | 97,4 | 0 | 5,1 | 347 | 0 | 995 |
| 23 | Chanco INIA | 06-05-2026 05:30 | 13,8 | 97,6 | 0 | 4,8 | 346 | 0 | 995 |
| 22 | Chanco INIA | 06-05-2026 05:15 | 13,5 | 97,8 | 0,1 | 4,7 | 343 | 0 | 995 |
| 21 | Chanco INIA | 06-05-2026 05:00 | 13,3 | 97,6 | 0,5 | 2,6 | 1 | 0 | 995 |
| 20 | Chanco INIA | 06-05-2026 04:45 | 13,2 | 5 | 0,3 | 3 | 10 | 0 | 996 |
| 19 | Chanco INIA | 06-05-2026 04:30 | 13,2 | 96,9 | 0,2 | 2,7 | 13 | 0 | 996 |
| 18 | Chanco INIA | 06-05-2026 04:15 | 13,3 | 96,6 | 0,1 | 3,3 | 12 | 0 | 996 |
| 17 | Chanco INIA | 06-05-2026 04:00 | 13,3 | 96,6 | 0,1 | 3 | 4 | 0 | 996 |
| 16 | Chanco INIA | 06-05-2026 03:45 | 13,2 | 96,8 | 0 | 2,8 | 11 | 0 | 996 |
| 15 | Chanco INIA | 06-05-2026 03:30 | 13,2 | 96,5 | 0,1 | 3 | 4 | 0 | 996 |
| 14 | Chanco INIA | 06-05-2026 03:15 | 13,3 | 96,8 | 0,1 | 3,1 | 14 | 0 | 996 |
| 13 | Chanco INIA | 06-05-2026 03:00 | 13,1 | 96,8 | 0,2 | 2,7 | 14 | 0 | 996 |
| 12 | Chanco INIA | 06-05-2026 02:45 | 13,2 | 96,2 | 0,2 | 2,8 | 13 | 0 | 996 |
| 11 | Chanco INIA | 06-05-2026 02:30 | 13,4 | 95,8 | 0,6 | 3,3 | 14 | 0 | 996 |
| 10 | Chanco INIA | 06-05-2026 02:15 | 13,5 | 95,7 | 1,1 | 3,2 | 16 | 0 | 996 |
| 9 | Chanco INIA | 06-05-2026 02:00 | 13,5 | 95,2 | 0,9 | 2,3 | 12 | 0 | 996 |
| 8 | Chanco INIA | 06-05-2026 01:45 | 13,6 | 95,4 | 0 | 3 | 24 | 0 | 996 |
| 7 | Chanco INIA | 06-05-2026 01:30 | 13,6 | 95,2 | 0,1 | 2,9 | 25 | 0 | 997 |
| 6 | Chanco INIA | 06-05-2026 01:15 | 13,7 | 94,9 | 0,1 | 3,1 | 23 | 0 | 996 |
| 5 | Chanco INIA | 06-05-2026 01:00 | 13,8 | 93,7 | 0,1 | 2,9 | 18 | 0 | 997 |
| 4 | Chanco INIA | 06-05-2026 00:45 | 13,9 | 92,3 | 0,1 | 2,9 | 20 | 0 | 997 |
| 3 | Chanco INIA | 06-05-2026 00:30 | 14,1 | 91,5 | 0,1 | 2,3 | 3 | 5 | 997 |
| 2 | Chanco INIA | 06-05-2026 00:15 | 14,3 | 89,4 | 0 | 3,2 | 4 | 0 | 997 |
| 1 | Chanco INIA | 06-05-2026 00:00 | 14,5 | 87,6 | 0 | 3,1 | 17 | 0 | 997 |